Nearby METAR Reports


RPLC - Angeles/Pampanga, Philippines
Distance from station: S 166km
Updated: Mon, 11-Oct-2021 12:00am PST
NOT Current
Mostly cloudy
Mostly cloudy
 Wind from WSW
Wind: WSW 4 km/h
Temperature: 25°C
Dew Point: 24°C
Humidity: 94%
Barometer: 1001 hPa
Clouds: Mostly cloudy
Visibility: 7 km
Cloud details: Few Clouds 610 m
Mostly cloudy 9144 m
2021/10/10 16:00 RPLC 101600Z 25002KT 7000 FEW020 BKN300 25/24 Q1001 NOSIG RMK A2956
RPLI - Laoag Intl Airport, Philippines
Distance from station: N 171km
Updated: Fri, 22-Oct-2021 11:00pm PST
NOT Current
Few Clouds
Few Clouds
 Wind from N
Wind: N 9 km/h
Temperature: 26°C
Dew Point: 24°C
Humidity: 89%
Barometer: 1012 hPa
Clouds: Few Clouds
Visibility: 10 km
Cloud details: Few Clouds 549 m
2021/10/22 15:00 RPLI 221500Z 01005KT 350V050 9999 FEW018 26/24 Q1012 NOSIG RMK A2988
 
RPLB - Olongapo/Subic, Philippines
Distance from station: S 205km
Updated: Sat, 23-Oct-2021 12:00am PST
Few Clouds
Few Clouds
 Wind from E
Wind: E 7 km/h
Clouds: Few Clouds
Visibility: 10 km
Cloud details: Few Clouds 610 m
2021/10/22 16:00 RPLB 221600Z 08004KT 9999 FEW020 2/22 Q1012 NOSIG RMK A2988
RPLL - Ninoy Aquino Intl Airport, Philippines
Distance from station: SSE 247km
Updated: Sat, 23-Oct-2021 12:00am PST
Few Clouds
Few Clouds
 Wind from ESE
Wind: ESE 6 km/h
Temperature: 27°C
Heat Index: 30°C
Dew Point: 23°C
Humidity: 79%
Barometer: 1012 hPa
Clouds: Few Clouds
Visibility: 10 km
Cloud details: Few Clouds 762 m
2021/10/22 16:00 RPLL 221600Z 12003KT 100V170 9999 FEW025 27/23 Q1012 NOSIG RMK A2988